Time;durP1;ratioP1;P1;durP2;ratioP2;P2;SDS_P1;SDS_P2;PMS_P1;PMS_P2;Temp;Humidity;BMP_temperature;BMP_pressure;BME280_temperature;BME280_humidity;BME280_pressure;Samples;Min_cycle;Max_cycle;Signal;HPM_P1;HPM_P2
2022/12/11 00:00:37;;;;;;;2.50;2.27;;;0.50;99.90;;;;;;5053259;28;20525;-48
2022/12/11 00:03:04;;;;;;;4.80;3.00;;;0.50;99.90;;;;;;5063357;28;20544;-48
2022/12/11 00:05:31;;;;;;;6.33;3.53;;;0.60;99.90;;;;;;5071957;28;20483;-49
2022/12/11 00:07:58;;;;;;;4.60;3.83;;;0.60;99.90;;;;;;5061632;28;21048;-48
2022/12/11 00:10:26;;;;;;;3.50;3.20;;;0.60;99.90;;;;;;5052833;28;20437;-49
2022/12/11 00:12:53;;;;;;;7.53;5.07;;;0.70;99.90;;;;;;5051824;28;21066;-45
2022/12/11 00:15:20;;;;;;;7.87;4.83;;;0.50;99.90;;;;;;5051585;28;20444;-49
2022/12/11 00:17:47;;;;;;;5.90;4.60;;;0.50;99.90;;;;;;5050467;28;20452;-48
2022/12/11 00:20:13;;;;;;;6.00;4.77;;;0.40;99.90;;;;;;5051801;28;20449;-48
2022/12/11 00:22:40;;;;;;;6.13;5.10;;;0.40;99.90;;;;;;5051103;28;20452;-49
2022/12/11 00:25:08;;;;;;;5.57;5.00;;;0.20;99.90;;;;;;5051216;28;20564;-48
2022/12/11 00:27:36;;;;;;;7.73;5.00;;;0.10;99.90;;;;;;5049940;28;20938;-48
2022/12/11 00:30:04;;;;;;;7.03;5.80;;;0.20;99.90;;;;;;5050189;28;20539;-48
2022/12/11 00:32:31;;;;;;;5.10;4.60;;;0.20;99.90;;;;;;5049877;28;20836;-51
2022/12/11 00:34:58;;;;;;;7.37;5.20;;;0.20;99.90;;;;;;5049698;28;20947;-48
2022/12/11 00:37:25;;;;;;;5.33;4.63;;;0.30;99.90;;;;;;5048501;28;20954;-52
2022/12/11 00:39:52;;;;;;;5.60;5.10;;;0.40;99.90;;;;;;5049790;28;20438;-48
2022/12/11 00:42:19;;;;;;;9.73;5.43;;;0.40;99.90;;;;;;5050746;28;20448;-48
2022/12/11 00:44:47;;;;;;;5.50;4.90;;;0.40;99.90;;;;;;5050814;28;20564;-51
2022/12/11 00:47:14;;;;;;;5.93;5.30;;;0.50;99.90;;;;;;5050652;28;20448;-51
2022/12/11 00:49:40;;;;;;;4.80;4.17;;;0.60;99.90;;;;;;5051435;28;20484;-48
2022/12/11 00:52:08;;;;;;;4.97;4.50;;;0.40;99.90;;;;;;5050493;28;20442;-48
2022/12/11 00:54:35;;;;;;;5.93;5.33;;;0.40;99.90;;;;;;5050767;28;20462;-48
2022/12/11 00:57:01;;;;;;;4.90;3.97;;;0.30;99.90;;;;;;5050493;28;20536;-48
2022/12/11 00:59:29;;;;;;;5.50;4.53;;;0.20;99.90;;;;;;5051493;28;20445;-51
2022/12/11 01:01:57;;;;;;;4.80;4.40;;;0.10;99.90;;;;;;5050541;28;20532;-48
2022/12/11 01:04:24;;;;;;;6.77;5.30;;;0.30;99.90;;;;;;5050785;28;20480;-48
2022/12/11 01:06:50;;;;;;;5.50;5.00;;;0.30;99.90;;;;;;5051140;28;20532;-48
2022/12/11 01:12:01;;;;;;;6.90;4.87;;;0.10;99.90;;;;;;5051114;28;20804;-49
2022/12/11 01:14:28;;;;;;;5.43;4.47;;;0.20;99.90;;;;;;5050559;28;20462;-48
2022/12/11 01:16:56;;;;;;;9.33;5.20;;;0.20;99.90;;;;;;5051006;28;20442;-48
2022/12/11 01:19:24;;;;;;;6.23;4.30;;;0.20;99.90;;;;;;5050855;28;20818;-48
2022/12/11 01:21:50;;;;;;;6.57;4.50;;;0.00;99.90;;;;;;5050911;28;20514;-49
2022/12/11 01:24:17;;;;;;;6.60;4.70;;;0.10;99.90;;;;;;5050303;28;20462;-48
2022/12/11 01:26:44;;;;;;;6.50;4.70;;;0.30;99.90;;;;;;5050602;28;20544;-49
2022/12/11 01:29:11;;;;;;;8.57;5.40;;;0.30;99.90;;;;;;5050350;28;20468;-50
2022/12/11 01:31:38;;;;;;;7.60;4.80;;;0.30;99.90;;;;;;5050644;28;20977;-49
2022/12/11 01:34:06;;;;;;;6.83;5.13;;;0.30;99.90;;;;;;5050717;28;20461;-49
2022/12/11 01:36:33;;;;;;;8.40;5.67;;;0.20;99.90;;;;;;5050359;28;20818;-48
2022/12/11 01:38:59;;;;;;;7.90;4.80;;;0.30;99.90;;;;;;5050670;28;20540;-48
2022/12/11 01:41:26;;;;;;;5.90;4.83;;;0.10;99.90;;;;;;5050012;28;20986;-48
2022/12/11 01:44:01;;;;;;;7.47;5.57;;;0.00;99.90;;;;;;5049774;28;20515;-49
2022/12/11 01:46:29;;;;;;;6.63;4.77;;;0.10;99.90;;;;;;5051075;28;20559;-51
2022/12/11 01:48:56;;;;;;;7.23;6.27;;;0.00;99.90;;;;;;5052691;28;20445;-51
2022/12/11 01:51:24;;;;;;;10.93;6.80;;;0.10;99.90;;;;;;5063006;28;20528;-48
2022/12/11 01:53:57;;;;;;;9.07;5.53;;;0.10;99.90;;;;;;5054032;28;20986;-50
2022/12/11 01:56:24;;;;;;;8.70;5.77;;;0.20;99.90;;;;;;5054150;28;20536;-48
2022/12/11 01:58:56;;;;;;;7.33;4.97;;;0.10;99.90;;;;;;5072871;28;21054;-48
2022/12/11 02:01:28;;;;;;;7.30;5.73;;;0.00;99.90;;;;;;5066821;28;20437;-49
2022/12/11 02:03:56;;;;;;;8.13;6.10;;;-0.20;99.90;;;;;;5054183;28;20663;-49
2022/12/11 02:06:34;;;;;;;8.27;5.57;;;-0.20;99.90;;;;;;5062388;28;21017;-48
2022/12/11 02:09:02;;;;;;;6.73;5.17;;;-0.10;99.90;;;;;;5066779;28;20804;-48
2022/12/11 02:11:39;;;;;;;7.17;6.30;;;0.00;99.90;;;;;;5054357;28;20528;-48
2022/12/11 02:14:13;;;;;;;6.23;5.20;;;0.00;99.90;;;;;;5053864;28;20457;-49
2022/12/11 02:16:46;;;;;;;10.00;6.23;;;0.10;99.90;;;;;;5054108;28;20441;-49
2022/12/11 02:19:29;;;;;;;7.77;4.80;;;0.10;99.90;;;;;;5053783;28;20460;-48
2022/12/11 02:21:58;;;;;;;9.33;5.77;;;0.10;99.90;;;;;;5053888;28;21004;-48
2022/12/11 02:24:38;;;;;;;7.90;6.00;;;0.20;99.90;;;;;;5065494;28;20913;-48
2022/12/11 02:27:32;;;;;;;8.73;5.93;;;0.20;99.90;;;;;;5072488;28;20934;-48
2022/12/11 02:30:03;;;;;;;6.73;5.43;;;0.30;99.90;;;;;;5060110;28;20535;-48
2022/12/11 02:32:38;;;;;;;6.87;5.57;;;0.00;99.90;;;;;;5072797;28;20530;-48
2022/12/11 02:35:11;;;;;;;7.50;6.00;;;-0.20;99.90;;;;;;5073939;28;20472;-49
2022/12/11 02:37:41;;;;;;;9.77;6.60;;;-0.20;99.90;;;;;;5053536;28;20528;-49
2022/12/11 02:40:12;;;;;;;7.90;5.70;;;-0.30;99.90;;;;;;5053617;28;20529;-48
2022/12/11 02:42:43;;;;;;;8.37;7.03;;;-0.30;99.90;;;;;;5060713;28;20522;-47
2022/12/11 02:45:13;;;;;;;9.30;5.80;;;-0.40;99.90;;;;;;5059765;28;20989;-48
2022/12/11 02:47:42;;;;;;;7.70;5.50;;;-0.20;99.90;;;;;;5073058;28;20476;-49
2022/12/11 02:50:13;;;;;;;8.17;5.60;;;-0.30;99.90;;;;;;5063149;28;20528;-48
2022/12/11 02:52:42;;;;;;;10.40;6.30;;;-0.10;99.90;;;;;;5053284;28;20533;-48
2022/12/11 02:55:12;;;;;;;8.57;6.07;;;-0.20;99.90;;;;;;5055012;28;20525;-48
2022/12/11 02:57:44;;;;;;;8.20;5.40;;;-0.20;99.90;;;;;;5052990;28;20529;-48
2022/12/11 03:00:13;;;;;;;8.20;5.80;;;0.00;99.90;;;;;;5053745;28;20449;-48
2022/12/11 03:02:41;;;;;;;8.00;6.10;;;-0.10;99.90;;;;;;5052953;28;20501;-48
2022/12/11 03:05:09;;;;;;;9.03;6.30;;;-0.30;99.90;;;;;;5052613;28;20564;-48
2022/12/11 03:07:38;;;;;;;8.10;6.00;;;-0.20;99.90;;;;;;5053037;28;21006;-48
2022/12/11 03:10:07;;;;;;;11.30;6.50;;;-0.10;99.90;;;;;;5053071;28;20522;-50
2022/12/11 03:12:38;;;;;;;12.67;6.70;;;-0.10;99.90;;;;;;5052902;28;20437;-51
2022/12/11 03:15:08;;;;;;;11.87;7.90;;;0.00;99.90;;;;;;5065199;28;20441;-51
2022/12/11 03:17:46;;;;;;;7.87;6.83;;;0.00;99.90;;;;;;5052811;28;20939;-51
2022/12/11 03:20:25;;;;;;;7.67;6.27;;;-0.10;99.90;;;;;;5052537;28;20458;-48
2022/12/11 03:22:58;;;;;;;9.40;6.13;;;-0.20;99.90;;;;;;5052646;28;20540;-46
2022/12/11 03:25:32;;;;;;;9.83;7.27;;;-0.50;99.90;;;;;;5053419;28;20480;-49
2022/12/11 03:28:04;;;;;;;8.50;6.60;;;-0.50;99.90;;;;;;5054731;28;20536;-47
2022/12/11 03:30:36;;;;;;;10.77;7.37;;;-0.20;99.90;;;;;;5071791;28;20967;-48
2022/12/11 03:33:08;;;;;;;9.47;7.73;;;-0.20;99.90;;;;;;5072110;28;20493;-48
2022/12/11 03:35:40;;;;;;;11.53;7.57;;;0.00;99.90;;;;;;5067589;28;20524;-49
2022/12/11 03:38:11;;;;;;;11.13;8.37;;;0.00;99.90;;;;;;5072368;28;20524;-48
2022/12/11 03:40:39;;;;;;;10.83;7.50;;;0.00;99.90;;;;;;5054753;28;20536;-48
2022/12/11 03:43:07;;;;;;;10.03;7.70;;;-0.20;99.90;;;;;;5052232;28;20457;-48
2022/12/11 03:45:35;;;;;;;12.73;8.30;;;-0.30;99.90;;;;;;5056280;28;20468;-48
2022/12/11 03:48:06;;;;;;;11.57;8.60;;;-0.20;99.90;;;;;;5062740;28;20529;-48
2022/12/11 03:50:35;;;;;;;10.00;7.37;;;0.00;99.90;;;;;;5052838;28;20541;-48
2022/12/11 03:53:04;;;;;;;11.07;8.17;;;-0.20;99.90;;;;;;5051569;28;20470;-48
2022/12/11 03:55:33;;;;;;;11.20;8.23;;;-0.30;99.90;;;;;;5055434;28;20481;-48
2022/12/11 03:58:00;;;;;;;10.80;8.27;;;-0.40;99.90;;;;;;5072421;28;20452;-48
2022/12/11 04:00:27;;;;;;;9.70;8.37;;;-0.30;99.90;;;;;;5071449;28;20447;-49
2022/12/11 04:03:12;;;;;;;12.63;9.07;;;-0.30;99.90;;;;;;5071662;28;20555;-49
2022/12/11 04:05:42;;;;;;;12.87;7.80;;;-0.20;99.90;;;;;;5070448;28;20469;-48
2022/12/11 04:08:09;;;;;;;11.40;8.30;;;-0.30;99.90;;;;;;5055699;28;20450;-48
2022/12/11 04:10:36;;;;;;;12.33;8.93;;;-0.30;99.90;;;;;;5070046;28;20524;-48
2022/12/11 04:13:03;;;;;;;10.00;7.87;;;-0.10;99.90;;;;;;5071925;28;21064;-48
2022/12/11 04:15:29;;;;;;;9.73;7.87;;;-0.20;99.90;;;;;;5068976;28;20540;-48
2022/12/11 04:26:39;;;;;;;12.70;8.07;;;-0.30;99.90;;;;;;4974204;28;20479;-48
2022/12/11 04:29:06;;;;;;;11.17;8.03;;;-0.40;99.90;;;;;;5030087;28;20967;-48
2022/12/11 04:31:33;;;;;;;13.43;9.40;;;-0.40;99.90;;;;;;5071603;28;20528;-48
2022/12/11 04:34:00;;;;;;;14.67;9.97;;;-0.40;99.90;;;;;;5071342;28;20544;-48
2022/12/11 04:36:28;;;;;;;13.03;8.60;;;-0.20;99.90;;;;;;5058875;28;20442;-48
2022/12/11 04:38:55;;;;;;;14.23;9.47;;;-0.30;99.90;;;;;;5051253;28;20444;-48
2022/12/11 04:41:21;;;;;;;14.80;9.97;;;-0.20;99.90;;;;;;5051651;28;20448;-48
2022/12/11 04:43:48;;;;;;;14.00;8.53;;;-0.20;99.90;;;;;;5051536;28;21059;-48
2022/12/11 04:46:17;;;;;;;15.20;10.30;;;-0.10;99.90;;;;;;5060877;28;20477;-48
2022/12/11 04:48:44;;;;;;;15.03;9.63;;;-0.10;99.90;;;;;;5070690;28;20551;-49
2022/12/11 04:51:12;;;;;;;12.73;9.47;;;-0.20;99.90;;;;;;5055444;28;20534;-49
2022/12/11 04:53:40;;;;;;;12.27;10.20;;;-0.20;99.90;;;;;;5054159;28;21045;-48
2022/12/11 04:56:09;;;;;;;15.50;10.70;;;-0.20;99.90;;;;;;5060052;28;20558;-51
2022/12/11 04:58:37;;;;;;;14.63;9.80;;;-0.10;99.90;;;;;;5051099;28;20949;-48
2022/12/11 05:01:08;;;;;;;15.17;11.20;;;-0.10;99.90;;;;;;5052934;28;20446;-49
2022/12/11 05:03:35;;;;;;;16.33;9.90;;;-0.10;99.90;;;;;;5055951;28;20457;-48
2022/12/11 05:06:02;;;;;;;13.70;9.93;;;0.00;99.90;;;;;;5050908;28;20504;-48
2022/12/11 05:08:28;;;;;;;19.83;11.63;;;0.00;99.90;;;;;;5053449;28;20491;-48
2022/12/11 05:10:58;;;;;;;17.70;12.00;;;-0.20;99.90;;;;;;5068786;28;20527;-48
2022/12/11 05:13:26;;;;;;;19.70;11.70;;;-0.10;99.90;;;;;;5066501;28;21068;-47
2022/12/11 05:15:53;;;;;;;15.60;11.10;;;-0.20;99.90;;;;;;5069365;28;20473;-49
2022/12/11 05:18:20;;;;;;;18.13;10.30;;;-0.30;99.90;;;;;;5069372;28;20454;-48
2022/12/11 05:20:55;;;;;;;13.97;10.43;;;-0.40;99.90;;;;;;5071249;28;20897;-50
2022/12/11 05:23:22;;;;;;;13.17;9.73;;;-0.30;99.90;;;;;;5072579;28;20475;-48
2022/12/11 05:25:52;;;;;;;17.27;10.97;;;-0.30;99.90;;;;;;5074719;28;21080;-51
2022/12/11 05:28:21;;;;;;;15.40;10.43;;;-0.40;99.90;;;;;;5072293;28;20440;-50
2022/12/11 05:30:48;;;;;;;14.33;10.83;;;-0.40;99.90;;;;;;5075007;28;20891;-49
2022/12/11 05:33:15;;;;;;;17.43;10.70;;;-0.30;99.90;;;;;;5074666;28;20543;-48
2022/12/11 05:35:47;;;;;;;12.07;9.47;;;-0.20;99.90;;;;;;5072242;28;20532;-51
2022/12/11 05:38:14;;;;;;;14.23;10.73;;;-0.20;99.90;;;;;;5074768;28;20795;-49
2022/12/11 05:40:41;;;;;;;17.90;12.20;;;-0.30;99.90;;;;;;5074711;28;20934;-48
2022/12/11 05:43:08;;;;;;;13.50;9.53;;;-0.30;99.90;;;;;;5074157;28;20503;-48
2022/12/11 05:45:37;;;;;;;16.60;12.20;;;-0.40;99.90;;;;;;5072875;28;20447;-48
2022/12/11 05:48:04;;;;;;;19.60;13.90;;;-0.30;99.90;;;;;;5074294;28;20450;-48
2022/12/11 05:50:31;;;;;;;17.50;11.33;;;-0.40;99.90;;;;;;5072309;28;20520;-49
2022/12/11 05:52:58;;;;;;;19.33;12.50;;;-0.40;99.90;;;;;;5054025;28;20989;-48
2022/12/11 05:55:25;;;;;;;18.07;12.20;;;-0.50;99.90;;;;;;5055542;28;20541;-50
2022/12/11 05:57:52;;;;;;;15.77;10.50;;;-0.50;99.90;;;;;;5054659;28;20545;-50
2022/12/11 06:00:19;;;;;;;18.67;12.00;;;-0.30;99.90;;;;;;5055885;28;20469;-48
2022/12/11 06:02:47;;;;;;;16.63;11.57;;;-0.30;99.90;;;;;;5054090;28;20462;-48
2022/12/11 06:05:14;;;;;;;12.17;9.70;;;-0.60;99.90;;;;;;5055198;28;20950;-48
2022/12/11 06:07:41;;;;;;;14.97;10.93;;;-0.70;99.90;;;;;;5054048;28;20564;-48
2022/12/11 06:10:09;;;;;;;16.80;11.47;;;-0.60;99.90;;;;;;5069895;28;20440;-48
2022/12/11 06:12:36;;;;;;;15.63;11.57;;;-0.50;99.90;;;;;;5069704;28;20512;-48
2022/12/11 06:15:03;;;;;;;14.30;10.60;;;-0.50;99.90;;;;;;5054259;28;20954;-49
2022/12/11 06:17:30;;;;;;;13.87;9.20;;;-0.40;99.90;;;;;;5054103;28;20961;-50
2022/12/11 06:19:58;;;;;;;17.97;10.80;;;-0.40;99.90;;;;;;5053837;28;20947;-48
2022/12/11 06:22:25;;;;;;;14.97;8.83;;;-0.40;99.90;;;;;;5053877;28;20453;-48
2022/12/11 06:24:52;;;;;;;14.97;10.37;;;-0.40;99.90;;;;;;5054076;28;20525;-48
2022/12/11 06:27:19;;;;;;;15.37;10.13;;;-0.50;99.90;;;;;;5054832;28;20556;-51
2022/12/11 06:29:46;;;;;;;16.63;11.47;;;-0.30;99.90;;;;;;5053701;28;20446;-48
2022/12/11 06:32:13;;;;;;;13.30;9.03;;;-0.50;99.90;;;;;;5053472;28;20529;-52
2022/12/11 06:34:40;;;;;;;13.47;9.50;;;-0.40;99.90;;;;;;5051777;28;20462;-48
2022/12/11 06:37:08;;;;;;;16.70;9.87;;;-0.30;99.90;;;;;;5054427;28;20942;-48
2022/12/11 06:39:35;;;;;;;15.50;11.40;;;-0.40;99.90;;;;;;5053883;28;20520;-48
2022/12/11 06:42:02;;;;;;;15.07;10.13;;;-0.30;99.90;;;;;;5059247;28;20447;-52
2022/12/11 06:44:29;;;;;;;14.63;9.10;;;-0.30;99.90;;;;;;5071728;28;20464;-48
2022/12/11 06:46:55;;;;;;;17.23;10.73;;;-0.40;99.90;;;;;;5065742;28;20461;-49
2022/12/11 06:49:23;;;;;;;17.40;10.50;;;-0.60;99.90;;;;;;5068041;28;20443;-48
2022/12/11 06:51:49;;;;;;;13.33;9.13;;;-0.50;99.90;;;;;;5065873;28;20440;-49
2022/12/11 06:54:18;;;;;;;13.57;8.70;;;-0.60;99.90;;;;;;5072133;28;20460;-48
2022/12/11 06:56:45;;;;;;;14.03;10.40;;;-0.40;99.90;;;;;;5055020;28;20448;-48
2022/12/11 06:59:12;;;;;;;14.93;9.87;;;-0.40;99.90;;;;;;5067322;28;20445;-51
2022/12/11 07:01:39;;;;;;;15.83;11.47;;;-0.50;99.90;;;;;;5060152;28;20446;-49
2022/12/11 07:04:06;;;;;;;12.83;10.10;;;-0.50;99.90;;;;;;5071495;28;20469;-48
2022/12/11 07:06:33;;;;;;;34.30;21.60;;;-0.50;99.90;;;;;;5071580;28;20476;-48
2022/12/11 07:09:00;;;;;;;37.80;21.40;;;-0.60;99.90;;;;;;5069943;28;20487;-50
2022/12/11 07:11:28;;;;;;;31.57;19.60;;;-0.60;99.90;;;;;;5069285;28;20520;-48
2022/12/11 07:13:55;;;;;;;29.77;16.97;;;-0.70;99.90;;;;;;5051812;28;20461;-48
2022/12/11 07:16:22;;;;;;;17.03;12.03;;;-0.70;99.90;;;;;;5058286;28;20455;-49
2022/12/11 07:18:50;;;;;;;17.00;10.07;;;-0.80;99.90;;;;;;5050517;28;20504;-49
2022/12/11 07:21:18;;;;;;;11.47;9.57;;;-0.60;99.90;;;;;;5050345;28;20544;-49
2022/12/11 07:23:45;;;;;;;16.17;11.10;;;-0.60;99.90;;;;;;5067531;28;20465;-48
2022/12/11 07:26:14;;;;;;;18.57;9.30;;;-0.60;99.90;;;;;;5071717;28;21005;-50
2022/12/11 07:28:42;;;;;;;11.33;10.13;;;-0.70;99.90;;;;;;5063431;28;20484;-49
2022/12/11 07:31:11;;;;;;;11.73;9.43;;;-0.70;99.90;;;;;;5062740;28;20442;-48
2022/12/11 07:33:38;;;;;;;14.70;10.30;;;-0.70;99.90;;;;;;5058451;28;20492;-49
2022/12/11 07:36:07;;;;;;;13.23;10.87;;;-0.70;99.90;;;;;;5071135;28;20480;-48
2022/12/11 07:38:35;;;;;;;12.10;10.07;;;-0.70;99.90;;;;;;5067141;28;20535;-48
2022/12/11 07:41:02;;;;;;;16.57;10.30;;;-0.80;99.90;;;;;;5061113;28;20453;-50
2022/12/11 07:43:29;;;;;;;13.80;9.73;;;-1.00;99.90;;;;;;5052386;28;20491;-49
2022/12/11 07:46:01;;;;;;;14.20;9.17;;;-0.90;99.90;;;;;;5056676;28;20548;-49
2022/12/11 07:48:27;;;;;;;14.47;9.23;;;-1.00;99.90;;;;;;5056000;28;20438;-48
2022/12/11 07:50:54;;;;;;;13.67;10.33;;;-1.10;99.90;;;;;;5059876;28;20539;-49
2022/12/11 07:53:21;;;;;;;16.47;10.03;;;-1.20;99.90;;;;;;5070796;28;20476;-49
2022/12/11 07:55:48;;;;;;;15.20;10.07;;;-1.00;99.90;;;;;;5071086;28;20467;-48
2022/12/11 07:58:15;;;;;;;14.43;9.40;;;-0.90;99.90;;;;;;5056158;28;20449;-51
2022/12/11 08:00:44;;;;;;;14.70;12.97;;;-0.80;99.90;;;;;;5056585;28;20447;-49
2022/12/11 08:03:12;;;;;;;14.20;10.07;;;-0.70;99.90;;;;;;5070072;28;21183;-48
2022/12/11 08:05:39;;;;;;;16.80;9.83;;;-0.80;99.90;;;;;;5071308;28;20476;-50
2022/12/11 08:08:06;;;;;;;15.30;10.30;;;-0.80;99.90;;;;;;5058164;28;20862;-49
2022/12/11 08:10:32;;;;;;;13.73;10.10;;;-0.90;99.90;;;;;;5054876;28;20502;-48
2022/12/11 08:12:59;;;;;;;18.57;10.83;;;-0.90;99.90;;;;;;5058142;28;20468;-48
2022/12/11 08:15:26;;;;;;;13.73;8.87;;;-0.80;99.90;;;;;;5058657;28;20901;-48
2022/12/11 08:17:53;;;;;;;14.57;8.43;;;-0.70;99.90;;;;;;5050833;28;20438;-49
2022/12/11 08:20:21;;;;;;;15.10;9.67;;;-0.60;99.90;;;;;;5051381;28;20485;-48
2022/12/11 08:22:48;;;;;;;13.93;9.70;;;-0.60;99.90;;;;;;5055106;28;21081;-48
2022/12/11 08:25:16;;;;;;;12.70;9.70;;;-0.70;99.90;;;;;;5061009;28;20515;-48
2022/12/11 08:27:43;;;;;;;13.07;9.17;;;-0.50;99.90;;;;;;5055731;28;21008;-49
2022/12/11 08:30:11;;;;;;;12.43;10.67;;;-0.50;99.90;;;;;;5061991;28;20534;-49
2022/12/11 08:32:37;;;;;;;14.67;12.13;;;-0.60;99.90;;;;;;5051316;28;20928;-49
2022/12/11 08:35:05;;;;;;;19.27;12.53;;;-0.60;99.90;;;;;;5070891;28;20472;-48
2022/12/11 08:37:34;;;;;;;17.60;11.70;;;-0.60;99.90;;;;;;5054180;28;20518;-49
2022/12/11 08:40:00;;;;;;;16.43;11.13;;;-0.50;99.90;;;;;;5058268;28;20544;-48
2022/12/11 08:42:27;;;;;;;20.07;13.93;;;-0.70;99.90;;;;;;5054588;28;20521;-51
2022/12/11 08:44:54;;;;;;;26.30;17.00;;;-0.60;99.90;;;;;;5050260;28;20545;-50
2022/12/11 08:47:21;;;;;;;18.60;10.30;;;-0.80;99.90;;;;;;5058138;28;20572;-48
2022/12/11 08:49:48;;;;;;;13.77;9.60;;;-0.70;99.90;;;;;;5051548;28;20500;-48
2022/12/11 08:52:15;;;;;;;19.33;11.60;;;-0.80;99.90;;;;;;5062627;28;20997;-49
2022/12/11 08:54:43;;;;;;;15.23;8.93;;;-0.90;99.90;;;;;;5054203;28;20472;-51
2022/12/11 08:57:10;;;;;;;16.70;11.13;;;-0.80;99.90;;;;;;5052152;28;20528;-51
2022/12/11 08:59:37;;;;;;;13.10;9.50;;;-0.60;99.90;;;;;;5051216;28;20886;-49
2022/12/11 09:02:04;;;;;;;21.73;11.17;;;-0.50;99.90;;;;;;5053048;28;20954;-48
2022/12/11 09:04:31;;;;;;;11.93;9.50;;;-0.50;99.90;;;;;;5061776;28;20470;-50
2022/12/11 09:06:58;;;;;;;14.60;8.70;;;-0.70;99.90;;;;;;5065216;28;20493;-48
2022/12/11 09:09:24;;;;;;;14.73;10.80;;;-0.60;99.90;;;;;;5068843;28;20474;-48
2022/12/11 09:11:53;;;;;;;14.77;10.17;;;-0.40;99.90;;;;;;5051468;28;20441;-49
2022/12/11 09:14:20;;;;;;;14.47;8.83;;;-0.40;99.90;;;;;;5058275;28;20779;-50
2022/12/11 09:16:47;;;;;;;15.57;9.63;;;-0.50;99.90;;;;;;5070467;28;20441;-48
2022/12/11 09:19:15;;;;;;;16.47;10.13;;;-0.80;99.90;;;;;;5056534;28;20454;-48
2022/12/11 09:21:43;;;;;;;18.30;10.80;;;-0.50;99.90;;;;;;5052764;28;21184;-51
2022/12/11 09:24:11;;;;;;;14.73;11.10;;;-0.50;99.90;;;;;;5063899;28;20543;-50
2022/12/11 09:26:39;;;;;;;14.40;9.20;;;-0.50;99.90;;;;;;5050982;28;20536;-49
2022/12/11 09:29:07;;;;;;;14.47;9.53;;;-0.50;99.90;;;;;;5059665;28;20440;-48
2022/12/11 09:31:36;;;;;;;14.07;10.60;;;-0.60;99.90;;;;;;5060009;28;20523;-48
2022/12/11 09:34:05;;;;;;;15.43;11.27;;;-0.30;99.90;;;;;;5050979;28;20458;-48
2022/12/11 09:36:32;;;;;;;15.93;10.80;;;-0.20;99.90;;;;;;5062820;28;20442;-49
2022/12/11 09:39:00;;;;;;;18.50;12.87;;;-0.30;99.90;;;;;;5049522;28;20447;-48
2022/12/11 09:41:37;;;;;;;14.67;10.40;;;-0.30;99.90;;;;;;5060924;28;20821;-49
2022/12/11 09:44:20;;;;;;;12.07;10.43;;;-0.20;99.90;;;;;;5062157;28;20552;-49
2022/12/11 09:46:48;;;;;;;16.67;10.60;;;-0.20;99.90;;;;;;5056391;28;21551;-48
2022/12/11 09:49:24;;;;;;;14.40;10.53;;;-0.30;99.90;;;;;;5055398;28;20660;-49
2022/12/11 09:52:00;;;;;;;18.77;10.03;;;-0.70;99.90;;;;;;5061537;28;20445;-48
2022/12/11 09:54:27;;;;;;;14.40;9.77;;;-0.70;99.90;;;;;;5057730;28;20925;-48
2022/12/11 09:57:03;;;;;;;13.73;10.00;;;-0.60;99.90;;;;;;5060284;28;20520;-48
2022/12/11 09:59:41;;;;;;;12.93;10.13;;;-0.60;99.90;;;;;;5058598;28;20456;-48
2022/12/11 10:02:22;;;;;;;12.80;9.63;;;-0.40;99.90;;;;;;5057984;28;20985;-49
2022/12/11 10:05:01;;;;;;;19.53;13.17;;;-0.30;99.90;;;;;;5065316;28;20448;-48
2022/12/11 10:07:36;;;;;;;13.73;8.40;;;-0.20;99.90;;;;;;5055435;28;20560;-49
2022/12/11 10:10:14;;;;;;;15.40;10.77;;;-0.20;99.90;;;;;;5056767;28;21177;-48
2022/12/11 10:12:52;;;;;;;9.13;8.00;;;-0.20;99.90;;;;;;5066349;28;20445;-49
2022/12/11 10:15:35;;;;;;;13.47;10.63;;;-0.10;99.90;;;;;;5064949;28;20523;-48
2022/12/11 10:18:09;;;;;;;11.20;8.37;;;-0.10;99.90;;;;;;5062103;28;20437;-50
2022/12/11 10:20:39;;;;;;;10.67;8.70;;;-0.20;99.90;;;;;;5064345;28;20472;-48
2022/12/11 10:23:07;;;;;;;14.47;9.80;;;-0.40;99.90;;;;;;5055636;28;20469;-50
2022/12/11 10:25:37;;;;;;;9.70;7.87;;;-0.90;99.90;;;;;;5052041;28;20989;-48
2022/12/11 10:28:12;;;;;;;19.33;11.00;;;-0.80;99.90;;;;;;5052504;28;20980;-49
2022/12/11 10:30:47;;;;;;;13.47;8.10;;;-0.80;99.90;;;;;;5062499;28;20440;-48
2022/12/11 10:33:21;;;;;;;11.97;8.70;;;-0.50;99.90;;;;;;5071893;28;20550;-50
2022/12/11 10:35:50;;;;;;;11.73;7.20;;;-0.90;99.90;;;;;;5071918;28;20455;-48
2022/12/11 10:38:23;;;;;;;9.60;6.43;;;-0.80;99.90;;;;;;5071529;28;20527;-49
2022/12/11 10:40:52;;;;;;;13.90;9.53;;;-0.50;99.90;;;;;;5072840;28;20532;-48
2022/12/11 10:43:19;;;;;;;19.70;11.67;;;-0.50;99.90;;;;;;5072710;28;20901;-49
2022/12/11 10:45:54;;;;;;;10.43;8.47;;;-0.40;99.90;;;;;;5072394;28;20443;-48
2022/12/11 10:48:22;;;;;;;9.13;7.00;;;-0.10;99.90;;;;;;5072984;28;20563;-49
2022/12/11 10:50:58;;;;;;;8.13;6.47;;;-0.10;99.90;;;;;;5073318;28;20963;-47
2022/12/11 10:53:25;;;;;;;8.57;6.37;;;-0.10;99.90;;;;;;5071808;28;20460;-48
2022/12/11 10:55:53;;;;;;;9.33;6.77;;;-0.80;99.90;;;;;;5071821;28;20481;-48
2022/12/11 10:58:22;;;;;;;7.93;6.70;;;-0.70;99.90;;;;;;5061516;28;20521;-49
2022/12/11 11:01:05;;;;;;;9.87;6.17;;;-0.50;99.90;;;;;;5052514;28;20871;-48
2022/12/11 11:03:33;;;;;;;9.10;6.90;;;-0.40;99.90;;;;;;5052432;28;20500;-48
2022/12/11 11:06:04;;;;;;;8.33;6.57;;;-0.20;99.90;;;;;;5053017;28;20513;-47
2022/12/11 11:08:39;;;;;;;11.20;7.73;;;-0.10;99.90;;;;;;5052885;28;20560;-48
2022/12/11 11:11:07;;;;;;;12.23;6.33;;;0.00;99.90;;;;;;5052641;28;20531;-47
2022/12/11 11:13:35;;;;;;;8.90;7.10;;;-0.10;99.90;;;;;;5070118;28;20461;-48
2022/12/11 11:16:06;;;;;;;5.87;4.50;;;-0.20;99.90;;;;;;5073096;28;20444;-47
2022/12/11 11:18:34;;;;;;;7.40;5.57;;;-0.20;99.90;;;;;;5072685;28;20523;-48
2022/12/11 11:21:02;;;;;;;7.93;5.87;;;-0.30;99.90;;;;;;5071497;28;20441;-48
2022/12/11 11:23:29;;;;;;;7.93;5.00;;;-0.20;99.90;;;;;;5071925;28;20475;-48
2022/12/11 11:25:58;;;;;;;7.20;6.23;;;-0.20;99.90;;;;;;5072740;28;20941;-47
2022/12/11 11:28:27;;;;;;;6.20;5.50;;;-0.10;99.90;;;;;;5072317;28;20479;-47
2022/12/11 11:30:58;;;;;;;8.00;5.13;;;-0.20;99.90;;;;;;5072592;28;20476;-49
2022/12/11 11:33:27;;;;;;;6.20;5.20;;;-0.40;99.90;;;;;;5071948;28;20899;-48
2022/12/11 11:35:56;;;;;;;8.17;6.20;;;-0.30;99.90;;;;;;5072688;28;20502;-47
2022/12/11 11:38:27;;;;;;;7.20;5.10;;;-0.20;99.90;;;;;;5071802;28;20473;-48
2022/12/11 11:41:00;;;;;;;8.87;6.07;;;-0.30;99.90;;;;;;5072781;28;20892;-47
2022/12/11 11:43:35;;;;;;;7.90;5.63;;;-0.20;99.90;;;;;;5072130;28;20505;-51
2022/12/11 11:46:06;;;;;;;12.13;8.67;;;-0.30;99.90;;;;;;5071849;28;20472;-48
2022/12/11 11:48:40;;;;;;;9.53;6.67;;;-0.20;99.90;;;;;;5060444;28;20466;-48
2022/12/11 11:51:14;;;;;;;8.90;7.13;;;-0.10;99.90;;;;;;5051869;28;20441;-48
2022/12/11 11:53:46;;;;;;;11.83;7.83;;;-0.10;99.90;;;;;;5051414;28;21020;-48
2022/12/11 11:56:21;;;;;;;9.97;7.77;;;0.00;99.90;;;;;;5052301;28;20528;-48
2022/12/11 11:58:55;;;;;;;8.63;7.20;;;0.00;99.90;;;;;;5072251;28;20941;-47
2022/12/11 12:01:22;;;;;;;10.73;7.60;;;-0.10;99.90;;;;;;5071165;28;20973;-48
2022/12/11 12:03:51;;;;;;;10.50;7.77;;;0.00;99.90;;;;;;5055767;28;20507;-48
2022/12/11 12:06:31;;;;;;;8.63;6.03;;;-0.20;99.90;;;;;;5051966;28;20442;-50
2022/12/11 12:09:07;;;;;;;8.83;5.50;;;-0.20;99.90;;;;;;5051756;28;20469;-48
2022/12/11 12:11:40;;;;;;;8.50;6.47;;;-0.40;99.90;;;;;;5051417;28;20495;-51
2022/12/11 12:14:15;;;;;;;8.77;7.07;;;-0.30;99.90;;;;;;5051363;28;20435;-50
2022/12/11 12:16:52;;;;;;;11.30;6.80;;;-0.10;99.90;;;;;;5051598;28;20203;-48
2022/12/11 12:19:37;;;;;;;8.23;7.20;;;0.00;99.90;;;;;;5050487;28;20533;-48
2022/12/11 12:22:13;;;;;;;10.07;7.90;;;-0.10;99.90;;;;;;5050656;28;20438;-49
2022/12/11 12:24:49;;;;;;;12.80;7.80;;;0.00;99.90;;;;;;5049885;28;20461;-48
2022/12/11 12:27:23;;;;;;;11.57;8.33;;;0.00;99.90;;;;;;5050590;28;20796;-48
2022/12/11 12:30:01;;;;;;;9.30;7.40;;;0.10;99.90;;;;;;5051269;28;20467;-48
2022/12/11 12:32:36;;;;;;;10.37;7.53;;;-0.10;99.90;;;;;;5051277;28;20957;-48
2022/12/11 12:35:15;;;;;;;9.23;6.60;;;-0.40;99.90;;;;;;5051272;28;20503;-48
2022/12/11 12:37:51;;;;;;;9.77;7.03;;;-0.30;99.90;;;;;;5051209;28;20449;-51
2022/12/11 12:40:29;;;;;;;21.87;12.40;;;-0.20;99.90;;;;;;5051239;28;20986;-51
2022/12/11 12:43:04;;;;;;;12.90;8.13;;;-0.10;99.90;;;;;;5051314;28;20562;-48
2022/12/11 12:45:37;;;;;;;8.33;7.30;;;-0.10;99.90;;;;;;5051400;28;20473;-48
2022/12/11 12:48:04;;;;;;;14.90;7.73;;;-0.10;99.90;;;;;;5065798;28;20542;-48
2022/12/11 12:50:39;;;;;;;11.33;7.50;;;0.00;99.90;;;;;;5071336;28;20441;-48
2022/12/11 12:53:07;;;;;;;7.37;6.60;;;-0.10;99.90;;;;;;5070602;28;20464;-48
2022/12/11 12:55:35;;;;;;;7.03;6.13;;;-0.20;99.90;;;;;;5071503;28;20563;-48
2022/12/11 12:58:05;;;;;;;9.67;7.00;;;-0.10;99.90;;;;;;5071572;28;20441;-48
2022/12/11 13:00:35;;;;;;;8.20;7.30;;;-0.20;99.90;;;;;;5070833;28;20441;-51
2022/12/11 13:03:13;;;;;;;8.10;6.20;;;-0.10;99.90;;;;;;5070997;28;20506;-48